Time;durP1;ratioP1;P1;durP2;ratioP2;P2;SDS_P1;SDS_P2;PMS_P1;PMS_P2;Temp;Humidity;BMP_temperature;BMP_pressure;BME280_temperature;BME280_humidity;BME280_pressure;Samples;Min_cycle;Max_cycle;Signal;HPM_P1;HPM_P2
2022/08/19 00:01:51;;;;;;;8.65;4.63;;;18.60;99.90;;;;;;5095290;28;20028;-65
2022/08/19 00:04:19;;;;;;;10.73;4.78;;;18.60;99.90;;;;;;5094973;28;20101;-64
2022/08/19 00:06:46;;;;;;;9.10;4.60;;;18.60;99.90;;;;;;5095269;28;20044;-65
2022/08/19 00:09:15;;;;;;;8.43;4.80;;;18.50;99.90;;;;;;5110892;28;20523;-65
2022/08/19 00:11:43;;;;;;;8.80;4.63;;;18.40;99.90;;;;;;5095075;28;20032;-65
2022/08/19 00:14:11;;;;;;;10.65;5.07;;;18.40;99.90;;;;;;5095378;28;20130;-65
2022/08/19 00:16:38;;;;;;;7.63;4.60;;;18.40;99.90;;;;;;5095134;28;20031;-65
2022/08/19 00:19:05;;;;;;;8.48;4.70;;;18.20;99.90;;;;;;5094677;28;20054;-64
2022/08/19 00:21:31;;;;;;;10.85;5.75;;;18.10;99.90;;;;;;5094924;28;20489;-65
2022/08/19 00:24:00;;;;;;;9.30;5.20;;;18.10;99.90;;;;;;5094993;28;20050;-65
2022/08/19 00:26:28;;;;;;;9.85;5.03;;;18.10;99.90;;;;;;5093572;28;20067;-65
2022/08/19 00:28:54;;;;;;;6.95;4.57;;;18.00;99.90;;;;;;5095186;28;20031;-65
2022/08/19 00:31:20;;;;;;;9.05;4.57;;;17.90;99.90;;;;;;5110428;28;20043;-65
2022/08/19 00:33:47;;;;;;;10.48;4.55;;;17.90;99.90;;;;;;5094242;28;20066;-64
2022/08/19 00:36:13;;;;;;;10.63;4.95;;;18.00;99.90;;;;;;5094547;28;20025;-64
2022/08/19 00:38:43;;;;;;;10.10;5.20;;;18.00;99.90;;;;;;5094814;28;20035;-64
2022/08/19 00:41:10;;;;;;;8.27;4.70;;;18.00;99.90;;;;;;5094545;28;20511;-64
2022/08/19 00:43:36;;;;;;;9.13;4.70;;;17.90;99.90;;;;;;5109970;28;20028;-64
2022/08/19 00:46:04;;;;;;;10.73;5.60;;;17.90;99.90;;;;;;5094396;28;20032;-64
2022/08/19 00:48:31;;;;;;;11.75;4.95;;;17.80;99.90;;;;;;5094613;28;20028;-64
2022/08/19 00:50:58;;;;;;;10.00;5.22;;;17.80;99.90;;;;;;5094343;28;20464;-64
2022/08/19 00:53:27;;;;;;;8.00;4.50;;;17.70;99.90;;;;;;5094294;28;20031;-64
2022/08/19 00:55:55;;;;;;;10.38;5.30;;;17.50;99.90;;;;;;5094283;28;20024;-64
2022/08/19 00:58:24;;;;;;;8.70;4.80;;;17.40;99.90;;;;;;5094198;28;20020;-64
2022/08/19 01:00:50;;;;;;;9.30;4.82;;;17.30;99.90;;;;;;5094058;28;20020;-64
2022/08/19 01:03:20;;;;;;;8.57;5.18;;;17.30;99.90;;;;;;5094087;28;20034;-64
2022/08/19 01:05:48;;;;;;;7.47;5.18;;;17.40;99.90;;;;;;5092804;28;20039;-65
2022/08/19 01:08:15;;;;;;;8.15;5.00;;;17.40;99.90;;;;;;5094082;28;20113;-64
2022/08/19 01:10:48;;;;;;;10.80;5.43;;;17.40;99.90;;;;;;5094146;28;20107;-64
2022/08/19 01:13:23;;;;;;;8.50;5.25;;;17.30;99.90;;;;;;5094233;28;20032;-64
2022/08/19 01:15:56;;;;;;;10.10;5.30;;;17.30;99.90;;;;;;5093630;28;20114;-64
2022/08/19 01:18:23;;;;;;;8.48;5.25;;;17.40;99.90;;;;;;5093468;28;20103;-64
2022/08/19 01:20:50;;;;;;;7.60;4.93;;;17.40;99.90;;;;;;5094091;28;20028;-65
2022/08/19 01:23:16;;;;;;;10.63;5.60;;;17.30;99.90;;;;;;5093819;28;20028;-64
2022/08/19 01:25:49;;;;;;;10.65;4.85;;;17.10;99.90;;;;;;5093705;28;20020;-64
2022/08/19 01:28:22;;;;;;;8.13;4.78;;;17.10;99.90;;;;;;5093675;28;20028;-64
2022/08/19 01:30:48;;;;;;;7.97;5.05;;;16.90;99.90;;;;;;5093225;28;20028;-64
2022/08/19 01:33:14;;;;;;;9.27;5.15;;;16.90;99.90;;;;;;5093513;28;20124;-64
2022/08/19 01:35:41;;;;;;;9.27;5.63;;;16.70;99.90;;;;;;5093427;28;20516;-64
2022/08/19 01:38:18;;;;;;;9.57;5.43;;;16.60;99.90;;;;;;5093152;28;20021;-64
2022/08/19 01:40:44;;;;;;;9.85;5.63;;;16.50;99.90;;;;;;5093805;28;20023;-64
2022/08/19 01:43:10;;;;;;;7.55;5.63;;;16.50;99.90;;;;;;5093436;28;20500;-64
2022/08/19 01:45:39;;;;;;;7.97;5.50;;;16.70;99.90;;;;;;5092612;28;20040;-64
2022/08/19 01:48:06;;;;;;;8.23;5.38;;;16.70;99.90;;;;;;5093366;28;20040;-65
2022/08/19 01:50:33;;;;;;;8.60;5.35;;;16.70;99.90;;;;;;5093144;28;20507;-64
2022/08/19 01:53:01;;;;;;;9.10;5.55;;;16.70;99.90;;;;;;5093572;28;20024;-65
2022/08/19 01:55:27;;;;;;;9.15;5.47;;;16.60;99.90;;;;;;5093276;28;20024;-65
2022/08/19 01:57:56;;;;;;;7.22;5.10;;;16.70;99.90;;;;;;5093102;28;20035;-65
2022/08/19 02:00:25;;;;;;;7.95;5.53;;;16.60;99.90;;;;;;5092563;28;20063;-65
2022/08/19 02:02:51;;;;;;;10.68;5.50;;;16.60;99.90;;;;;;5093270;28;20047;-65
2022/08/19 02:05:18;;;;;;;8.50;5.00;;;16.60;99.90;;;;;;5093049;28;20039;-65
2022/08/19 02:07:44;;;;;;;9.55;5.05;;;16.50;99.90;;;;;;5092949;28;20441;-65
2022/08/19 02:10:14;;;;;;;7.63;4.78;;;16.50;99.90;;;;;;5092771;28;20055;-64
2022/08/19 02:12:40;;;;;;;8.43;5.18;;;16.60;99.90;;;;;;5093039;28;20028;-65
2022/08/19 02:15:07;;;;;;;7.20;4.55;;;16.50;99.90;;;;;;5092385;28;20028;-64
2022/08/19 02:17:33;;;;;;;8.43;4.72;;;16.40;99.90;;;;;;5092693;28;20035;-65
2022/08/19 02:19:59;;;;;;;8.23;5.13;;;16.40;99.90;;;;;;5093128;28;20380;-64
2022/08/19 02:22:25;;;;;;;8.27;5.50;;;16.30;99.90;;;;;;5092527;28;20073;-65
2022/08/19 02:24:55;;;;;;;9.63;5.47;;;16.20;99.90;;;;;;5092958;28;20024;-65
2022/08/19 02:27:22;;;;;;;7.25;5.20;;;16.30;99.90;;;;;;5092546;28;20110;-65
2022/08/19 02:29:49;;;;;;;6.35;5.28;;;16.40;99.90;;;;;;5092329;28;20024;-65
2022/08/19 02:32:16;;;;;;;9.52;5.40;;;16.40;99.90;;;;;;5092634;28;20054;-65
2022/08/19 02:34:41;;;;;;;8.40;5.22;;;16.30;99.90;;;;;;5092632;28;20024;-64
2022/08/19 02:38:24;;;;;;;11.82;6.22;;;16.40;99.90;;;;;;5092477;28;20039;-65
2022/08/19 02:39:53;;;;;;;8.65;5.53;;;16.30;99.90;;;;;;5092100;28;20437;-65
2022/08/19 02:42:19;;;;;;;7.80;5.70;;;16.20;99.90;;;;;;5092325;28;20119;-65
2022/08/19 02:44:44;;;;;;;8.88;5.28;;;16.10;99.90;;;;;;5091835;28;20040;-65
2022/08/19 02:47:10;;;;;;;7.15;5.75;;;16.20;99.90;;;;;;5092557;28;20103;-65
2022/08/19 02:49:36;;;;;;;6.70;5.35;;;16.20;99.90;;;;;;5091641;28;20023;-65
2022/08/19 02:52:03;;;;;;;9.48;5.10;;;16.20;99.90;;;;;;5092177;28;20416;-65
2022/08/19 02:54:28;;;;;;;8.48;5.78;;;16.20;99.90;;;;;;5092196;28;20146;-65
2022/08/19 02:56:54;;;;;;;7.75;5.40;;;16.10;99.90;;;;;;5092132;28;20078;-65
2022/08/19 02:59:20;;;;;;;7.70;5.40;;;16.10;99.90;;;;;;5091962;28;20028;-64
2022/08/19 03:01:46;;;;;;;9.45;5.00;;;16.10;99.90;;;;;;5091620;28;20035;-65
2022/08/19 03:04:15;;;;;;;9.32;5.55;;;16.10;99.90;;;;;;5092355;28;20099;-64
2022/08/19 03:06:44;;;;;;;9.38;5.65;;;16.20;99.90;;;;;;5091996;28;20036;-65
2022/08/19 03:09:11;;;;;;;8.23;5.63;;;16.20;99.90;;;;;;5091964;28;20115;-65
2022/08/19 03:11:38;;;;;;;6.93;5.45;;;16.20;99.90;;;;;;5091779;28;20024;-65
2022/08/19 03:14:05;;;;;;;9.10;5.75;;;16.20;99.90;;;;;;5092165;28;20043;-65
2022/08/19 03:16:40;;;;;;;11.95;6.63;;;16.10;99.90;;;;;;5091900;28;20028;-65
2022/08/19 03:19:05;;;;;;;7.68;5.93;;;16.00;99.90;;;;;;5092045;28;20034;-67
2022/08/19 03:21:33;;;;;;;8.02;6.05;;;15.80;99.90;;;;;;5091849;28;20401;-65
2022/08/19 03:24:05;;;;;;;10.65;6.05;;;15.80;99.90;;;;;;5091719;28;20308;-65
2022/08/19 03:26:32;;;;;;;12.05;6.15;;;15.70;99.90;;;;;;5092273;28;20081;-65
2022/08/19 03:29:00;;;;;;;11.07;6.15;;;15.70;99.90;;;;;;5091511;28;20028;-66
2022/08/19 03:31:27;;;;;;;10.18;6.20;;;15.80;99.90;;;;;;5091893;28;20024;-65
2022/08/19 03:33:53;;;;;;;10.18;6.28;;;15.80;99.90;;;;;;5091812;28;20106;-65
2022/08/19 03:36:22;;;;;;;9.10;5.75;;;15.70;99.90;;;;;;5092069;28;20031;-66
2022/08/19 03:38:54;;;;;;;12.75;6.38;;;15.70;99.90;;;;;;5091641;28;20124;-65
2022/08/19 03:41:32;;;;;;;10.23;6.03;;;15.70;99.90;;;;;;5091304;28;20573;-65
2022/08/19 03:43:58;;;;;;;8.30;6.03;;;15.60;99.90;;;;;;5091653;28;20388;-66
2022/08/19 03:46:27;;;;;;;9.07;6.30;;;15.50;99.90;;;;;;5092091;28;20032;-66
2022/08/19 03:48:55;;;;;;;8.20;6.00;;;15.30;99.90;;;;;;5091737;28;20099;-67
2022/08/19 03:51:22;;;;;;;9.00;6.10;;;15.20;99.90;;;;;;5091650;28;20023;-66
2022/08/19 03:53:48;;;;;;;9.73;6.15;;;15.10;99.90;;;;;;5091991;28;20092;-66
2022/08/19 03:56:15;;;;;;;8.80;6.07;;;15.30;99.90;;;;;;5091300;28;20103;-66
2022/08/19 03:58:41;;;;;;;9.05;5.90;;;15.40;99.90;;;;;;5091617;28;20034;-66
2022/08/19 04:01:12;;;;;;;9.30;5.95;;;15.40;99.90;;;;;;5110300;28;20062;-66
2022/08/19 04:03:39;;;;;;;8.02;6.13;;;15.40;99.90;;;;;;5095346;28;20032;-66
2022/08/19 04:06:18;;;;;;;8.10;5.22;;;15.30;99.90;;;;;;5095377;28;20035;-66
2022/08/19 04:08:45;;;;;;;10.35;6.10;;;15.30;99.90;;;;;;5095106;28;20504;-66
2022/08/19 04:11:15;;;;;;;8.80;5.53;;;15.10;99.90;;;;;;5095187;28;20051;-66
2022/08/19 04:13:43;;;;;;;7.75;5.00;;;15.20;99.90;;;;;;5095117;28;20020;-66
2022/08/19 04:16:09;;;;;;;10.63;5.57;;;15.20;99.90;;;;;;5095060;28;20050;-66
2022/08/19 04:18:37;;;;;;;6.57;5.13;;;15.30;99.90;;;;;;5095195;28;20050;-66
2022/08/19 04:21:03;;;;;;;8.15;5.85;;;15.20;99.90;;;;;;5094891;28;20028;-66
2022/08/19 04:23:28;;;;;;;11.63;6.35;;;15.20;99.90;;;;;;5095041;28;20024;-66
2022/08/19 04:25:54;;;;;;;8.50;6.05;;;15.10;99.90;;;;;;5094599;28;20039;-66
2022/08/19 04:28:24;;;;;;;6.03;5.40;;;14.90;99.90;;;;;;5094868;28;20449;-66
2022/08/19 04:30:52;;;;;;;9.57;5.95;;;15.00;99.90;;;;;;5094773;28;20024;-66
2022/08/19 04:33:22;;;;;;;8.50;5.97;;;15.10;99.90;;;;;;5095313;28;20032;-66
2022/08/19 04:35:52;;;;;;;10.30;6.47;;;15.00;99.90;;;;;;5094827;28;20506;-66
2022/08/19 04:38:22;;;;;;;8.20;5.75;;;15.00;99.90;;;;;;5094541;28;20061;-66
2022/08/19 04:43:38;;;;;;;10.20;5.97;;;14.90;99.90;;;;;;5094567;28;20116;-66
2022/08/19 04:46:10;;;;;;;9.63;6.20;;;14.80;99.90;;;;;;5094665;28;20119;-66
2022/08/19 04:48:36;;;;;;;8.05;5.82;;;14.70;99.90;;;;;;5094817;28;20516;-66
2022/08/19 04:51:06;;;;;;;7.80;6.03;;;14.70;99.90;;;;;;5094478;28;20489;-66
2022/08/19 04:53:34;;;;;;;8.68;6.22;;;14.80;99.90;;;;;;5094258;28;20032;-66
2022/08/19 04:56:07;;;;;;;8.45;6.80;;;14.80;99.90;;;;;;5094415;28;20025;-66
2022/08/19 04:58:32;;;;;;;10.88;7.00;;;14.80;99.90;;;;;;5094353;28;20097;-66
2022/08/19 05:00:59;;;;;;;10.05;6.72;;;14.80;99.90;;;;;;5094072;28;20028;-66
2022/08/19 05:03:26;;;;;;;11.85;7.10;;;14.70;99.90;;;;;;5094064;28;20093;-66
2022/08/19 05:05:52;;;;;;;8.82;6.43;;;14.60;99.90;;;;;;5094007;28;20024;-66
2022/08/19 05:08:20;;;;;;;10.48;6.47;;;14.50;99.90;;;;;;5093956;28;20055;-65
2022/08/19 05:10:48;;;;;;;11.15;6.40;;;14.70;99.90;;;;;;5093979;28;20023;-66
2022/08/19 05:13:15;;;;;;;10.70;6.72;;;14.60;99.90;;;;;;5093499;28;20377;-66
2022/08/19 05:15:42;;;;;;;11.13;6.50;;;14.60;99.90;;;;;;5093761;28;20065;-66
2022/08/19 05:23:36;;;;;;;10.77;7.03;;;14.50;99.90;;;;;;5093308;28;19950;-66
2022/08/19 05:26:02;;;;;;;9.98;6.28;;;14.50;99.90;;;;;;5093705;28;20039;-66
2022/08/19 05:28:27;;;;;;;7.85;6.63;;;14.50;99.90;;;;;;5093536;28;20108;-66
2022/08/19 05:30:55;;;;;;;8.88;6.07;;;14.50;99.90;;;;;;5093553;28;20035;-66
2022/08/19 05:33:22;;;;;;;8.27;6.70;;;14.50;99.90;;;;;;5093988;28;20083;-66
2022/08/19 05:35:49;;;;;;;8.20;6.63;;;14.60;99.90;;;;;;5093711;28;20049;-67
2022/08/19 05:38:15;;;;;;;8.27;6.80;;;14.70;99.90;;;;;;5093105;28;20024;-66
2022/08/19 05:40:41;;;;;;;7.70;6.38;;;14.70;99.90;;;;;;5093420;28;20039;-66
2022/08/19 05:43:07;;;;;;;9.82;7.53;;;14.70;99.90;;;;;;5093425;28;20027;-66
2022/08/19 05:45:38;;;;;;;8.95;7.20;;;14.70;99.90;;;;;;5093637;28;20040;-66
2022/08/19 05:48:04;;;;;;;13.98;8.65;;;14.80;99.90;;;;;;5093321;28;20062;-66
2022/08/19 05:50:30;;;;;;;9.70;7.88;;;14.90;99.90;;;;;;5093134;28;20082;-66
2022/08/19 05:52:56;;;;;;;12.95;8.98;;;14.80;99.90;;;;;;5092843;28;20027;-66
2022/08/19 05:55:22;;;;;;;12.48;9.70;;;14.90;99.90;;;;;;5093178;28;20452;-66
2022/08/19 05:57:48;;;;;;;12.48;9.80;;;15.00;99.90;;;;;;5093159;28;20035;-66
2022/08/19 06:00:14;;;;;;;14.07;10.70;;;15.20;99.90;;;;;;5093408;28;20034;-66
2022/08/19 06:02:40;;;;;;;12.93;10.90;;;15.20;99.90;;;;;;5093201;28;20016;-66
2022/08/19 06:05:08;;;;;;;17.10;11.65;;;15.30;99.90;;;;;;5092942;28;20038;-66
2022/08/19 06:07:36;;;;;;;14.18;10.57;;;15.30;99.90;;;;;;5092375;28;20117;-66
2022/08/19 06:10:04;;;;;;;15.07;11.02;;;15.40;99.90;;;;;;5093105;28;20085;-66
2022/08/19 06:12:34;;;;;;;16.85;11.38;;;15.50;99.90;;;;;;5093218;28;20028;-66
2022/08/19 06:15:03;;;;;;;15.18;11.35;;;15.60;99.90;;;;;;5092794;28;20023;-66
2022/08/19 06:17:30;;;;;;;14.13;10.27;;;15.80;99.90;;;;;;5092773;28;20450;-66
2022/08/19 06:19:56;;;;;;;13.35;9.65;;;16.10;99.90;;;;;;5092805;28;20066;-66
2022/08/19 06:22:22;;;;;;;13.05;9.32;;;16.20;99.90;;;;;;5092352;28;20028;-66
2022/08/19 06:24:52;;;;;;;13.63;8.02;;;16.50;99.90;;;;;;5092394;28;20523;-66
2022/08/19 06:27:18;;;;;;;11.32;9.50;;;17.00;99.90;;;;;;5092770;28;20104;-66
2022/08/19 06:29:46;;;;;;;15.52;8.50;;;17.30;99.90;;;;;;5092600;28;20019;-66
2022/08/19 06:32:14;;;;;;;10.00;7.53;;;17.70;99.90;;;;;;5092699;28;20042;-66
2022/08/19 06:34:40;;;;;;;11.77;7.35;;;18.20;99.90;;;;;;5092620;28;20024;-66
2022/08/19 06:37:07;;;;;;;8.77;7.03;;;18.60;99.90;;;;;;5092449;28;20074;-66
2022/08/19 06:39:36;;;;;;;8.80;6.93;;;19.00;99.90;;;;;;5092492;28;20028;-66
2022/08/19 06:42:06;;;;;;;9.00;6.78;;;19.40;99.90;;;;;;5093015;28;20028;-66
2022/08/19 06:44:36;;;;;;;10.00;6.50;;;19.80;99.90;;;;;;5092359;28;20560;-66
2022/08/19 06:47:07;;;;;;;8.38;6.40;;;20.20;99.90;;;;;;5092366;28;20055;-66
2022/08/19 06:49:33;;;;;;;10.70;6.65;;;20.60;99.90;;;;;;5092668;28;20052;-66
2022/08/19 06:52:00;;;;;;;8.88;6.10;;;20.90;99.90;;;;;;5091974;28;20032;-66
2022/08/19 06:54:28;;;;;;;8.55;6.25;;;21.30;99.90;;;;;;5092458;28;20081;-66
2022/08/19 06:56:53;;;;;;;9.73;5.60;;;21.70;99.90;;;;;;5092360;28;20016;-66
2022/08/19 06:59:26;;;;;;;7.57;5.60;;;22.00;99.90;;;;;;5092610;28;20039;-66
2022/08/19 07:01:54;;;;;;;9.45;6.22;;;22.30;99.90;;;;;;5092293;28;20149;-66
2022/08/19 07:04:23;;;;;;;9.60;5.97;;;22.70;99.90;;;;;;5091691;28;20035;-66
2022/08/19 07:06:50;;;;;;;6.88;5.15;;;22.90;99.90;;;;;;5092076;28;20043;-66
2022/08/19 07:09:18;;;;;;;8.63;5.53;;;23.40;99.90;;;;;;5092267;28;20024;-65
2022/08/19 07:11:49;;;;;;;9.05;5.35;;;23.30;99.90;;;;;;5092434;28;20024;-66
2022/08/19 07:14:18;;;;;;;8.52;5.20;;;23.80;99.90;;;;;;5092237;28;20492;-63
2022/08/19 07:16:45;;;;;;;4.95;4.20;;;24.10;99.90;;;;;;5092138;28;20024;-64
2022/08/19 07:19:12;;;;;;;5.82;4.18;;;24.50;99.90;;;;;;5091734;28;20029;-63
2022/08/19 07:21:38;;;;;;;7.13;4.70;;;24.90;99.90;;;;;;5092055;28;20068;-64
2022/08/19 07:24:04;;;;;;;7.45;4.40;;;25.30;99.90;;;;;;5092448;28;20060;-64
2022/08/19 07:26:33;;;;;;;8.63;4.53;;;25.60;99.90;;;;;;5091940;28;20373;-63
2022/08/19 07:29:01;;;;;;;8.32;4.90;;;25.90;99.90;;;;;;5091917;28;20028;-64
2022/08/19 07:31:28;;;;;;;10.02;4.50;;;26.00;99.90;;;;;;5092025;28;20028;-64
2022/08/19 07:33:56;;;;;;;5.72;3.95;;;26.30;99.90;;;;;;5091425;28;20107;-63
2022/08/19 07:36:28;;;;;;;7.43;4.00;;;26.50;99.90;;;;;;5095633;28;20031;-64
2022/08/19 07:38:54;;;;;;;7.60;3.70;;;26.70;99.90;;;;;;5095893;28;20028;-63
2022/08/19 07:41:22;;;;;;;4.97;3.55;;;27.10;99.90;;;;;;5095892;28;20063;-63
2022/08/19 07:43:49;;;;;;;5.10;3.38;;;27.40;99.90;;;;;;5096043;28;20040;-64
2022/08/19 07:46:16;;;;;;;8.80;4.32;;;27.70;99.90;;;;;;5095904;28;20123;-64
2022/08/19 07:48:46;;;;;;;5.00;3.20;;;28.00;99.90;;;;;;5095536;28;20066;-64
2022/08/19 07:51:16;;;;;;;6.55;3.20;;;28.10;99.90;;;;;;5095619;28;20024;-64
2022/08/19 07:53:44;;;;;;;4.00;3.33;;;28.40;99.90;;;;;;5095548;28;20072;-65
2022/08/19 07:56:11;;;;;;;4.57;3.08;;;28.50;99.90;;;;;;5095650;28;20028;-65
2022/08/19 07:58:39;;;;;;;3.92;2.78;;;28.80;99.90;;;;;;5095771;28;20032;-65
2022/08/19 08:01:07;;;;;;;5.13;2.70;;;29.20;99.90;;;;;;5095874;28;20028;-65
2022/08/19 08:09:20;;;;;;;5.28;2.47;;;29.90;99.70;;;;;;5094427;28;20392;-65
2022/08/19 08:11:50;;;;;;;4.50;2.20;;;30.20;99.90;;;;;;5095293;28;20112;-64
2022/08/19 08:14:22;;;;;;;4.18;2.40;;;30.40;99.80;;;;;;5095313;28;20024;-65
2022/08/19 08:16:50;;;;;;;3.85;2.10;;;30.40;99.00;;;;;;5094426;28;20089;-66
2022/08/19 08:19:16;;;;;;;3.78;2.05;;;30.70;98.30;;;;;;5095243;28;20138;-65
2022/08/19 08:21:42;;;;;;;4.47;2.20;;;30.90;98.50;;;;;;5095183;28;20024;-65
2022/08/19 08:24:09;;;;;;;4.43;1.95;;;31.20;98.30;;;;;;5094954;28;20035;-65
2022/08/19 08:26:35;;;;;;;7.45;5.78;;;31.40;97.40;;;;;;5094968;28;20038;-65
2022/08/19 08:29:01;;;;;;;5.82;3.20;;;31.50;96.70;;;;;;5094558;28;20020;-65
2022/08/19 08:31:28;;;;;;;6.30;4.68;;;31.40;95.90;;;;;;5094188;28;20024;-65
2022/08/19 08:33:54;;;;;;;5.30;2.92;;;31.40;96.00;;;;;;5095039;28;20052;-65
2022/08/19 08:36:20;;;;;;;6.80;4.55;;;31.60;95.90;;;;;;5094874;28;20097;-65
2022/08/19 08:38:45;;;;;;;4.32;3.58;;;31.80;95.90;;;;;;5094619;28;20070;-65
2022/08/19 08:41:30;;;;;;;3.28;2.28;;;32.10;95.80;;;;;;5094226;28;20099;-65
2022/08/19 08:43:56;;;;;;;3.10;2.17;;;32.00;94.80;;;;;;5094749;28;20043;-65
2022/08/19 08:46:45;;;;;;;4.88;2.00;;;32.20;94.70;;;;;;5093707;28;20024;-66
2022/08/19 08:49:16;;;;;;;2.60;1.50;;;32.50;94.40;;;;;;5094723;28;20062;-65
2022/08/19 08:51:47;;;;;;;3.72;2.00;;;32.50;93.40;;;;;;5094191;28;20099;-65
2022/08/19 08:54:17;;;;;;;4.18;1.95;;;32.90;94.00;;;;;;5094460;28;20039;-65
2022/08/19 08:56:44;;;;;;;4.28;1.83;;;33.10;93.90;;;;;;5094607;28;20408;-66
2022/08/19 08:59:21;;;;;;;6.63;1.92;;;33.40;93.60;;;;;;5094576;28;20028;-66
2022/08/19 09:01:48;;;;;;;2.95;1.60;;;33.50;92.70;;;;;;5094397;28;20024;-65
2022/08/19 09:04:14;;;;;;;4.80;1.70;;;33.50;91.90;;;;;;5094382;28;20016;-65
2022/08/19 09:07:03;;;;;;;3.95;1.48;;;33.30;92.00;;;;;;5094127;28;20050;-65
2022/08/19 09:09:34;;;;;;;4.65;1.40;;;33.10;92.50;;;;;;5094263;28;20032;-65
2022/08/19 09:12:18;;;;;;;3.42;1.50;;;33.30;92.40;;;;;;5094298;28;20107;-66
2022/08/19 09:15:07;;;;;;;7.80;1.88;;;33.30;91.60;;;;;;5094190;28;20107;-65
2022/08/19 09:17:34;;;;;;;3.30;1.48;;;33.30;91.60;;;;;;5094458;28;20078;-65
2022/08/19 09:20:13;;;;;;;12.18;1.77;;;33.30;90.90;;;;;;5094095;28;20027;-66
2022/08/19 09:22:43;;;;;;;3.10;1.30;;;33.20;90.90;;;;;;5094172;28;20506;-66
2022/08/19 09:25:12;;;;;;;4.07;1.45;;;33.30;89.30;;;;;;5094477;28;20492;-67
2022/08/19 09:27:40;;;;;;;3.00;1.50;;;32.80;90.20;;;;;;5086416;28;20054;-67
2022/08/19 09:30:08;;;;;;;11.48;2.28;;;32.80;91.30;;;;;;5090818;28;20365;-66
2022/08/19 09:32:34;;;;;;;4.15;1.30;;;33.40;91.40;;;;;;5093607;28;20092;-66
2022/08/19 09:35:01;;;;;;;3.92;1.40;;;33.80;90.80;;;;;;5093853;28;20016;-66
2022/08/19 09:37:27;;;;;;;3.92;1.45;;;33.80;90.70;;;;;;5093360;28;20497;-67
2022/08/19 09:39:53;;;;;;;2.25;1.20;;;33.80;90.20;;;;;;5093275;28;20027;-67
2022/08/19 09:42:19;;;;;;;4.55;1.20;;;33.60;90.80;;;;;;5093732;28;20027;-66
2022/08/19 09:44:45;;;;;;;1.90;1.20;;;33.20;90.40;;;;;;5092722;28;20089;-66
2022/08/19 09:47:13;;;;;;;4.03;1.33;;;32.80;90.50;;;;;;5108781;28;20036;-67
2022/08/19 09:49:39;;;;;;;2.88;1.20;;;32.60;90.90;;;;;;5093085;28;20024;-67
2022/08/19 09:52:07;;;;;;;4.10;1.40;;;32.80;90.50;;;;;;5093325;28;20039;-67
2022/08/19 09:54:34;;;;;;;7.05;1.67;;;32.80;90.50;;;;;;5093177;28;20032;-66
2022/08/19 09:57:00;;;;;;;3.80;1.27;;;32.60;91.10;;;;;;5092956;28;20024;-66
2022/08/19 09:59:27;;;;;;;2.22;1.23;;;32.30;91.00;;;;;;5092814;28;20019;-66
2022/08/19 10:01:53;;;;;;;3.45;1.35;;;32.10;91.10;;;;;;5092897;28;20137;-66
2022/08/19 10:04:20;;;;;;;4.85;1.50;;;31.80;91.50;;;;;;5092911;28;20049;-66
2022/08/19 10:06:47;;;;;;;2.63;1.70;;;32.10;92.20;;;;;;5092695;28;20040;-67
2022/08/19 10:09:15;;;;;;;2.20;1.30;;;31.70;91.70;;;;;;5092727;28;20073;-67
2022/08/19 10:11:46;;;;;;;3.75;1.42;;;31.50;91.70;;;;;;5092678;28;20519;-67
2022/08/19 10:14:11;;;;;;;2.80;1.63;;;31.50;91.80;;;;;;5092061;28;20032;-67
2022/08/19 10:16:38;;;;;;;3.20;1.77;;;31.20;92.10;;;;;;5093022;28;20028;-67
2022/08/19 10:19:04;;;;;;;3.03;1.45;;;31.20;92.40;;;;;;5092519;28;20028;-67
2022/08/19 10:21:32;;;;;;;4.13;1.50;;;31.30;92.50;;;;;;5092448;28;20497;-67
2022/08/19 10:24:03;;;;;;;2.80;1.50;;;31.20;91.90;;;;;;5092532;28;20068;-67
2022/08/19 10:26:32;;;;;;;3.97;1.65;;;31.50;92.60;;;;;;5092944;28;20500;-67
2022/08/19 10:28:59;;;;;;;4.22;1.40;;;31.70;92.80;;;;;;5091930;28;20085;-67
2022/08/19 10:31:28;;;;;;;2.25;1.35;;;31.80;92.00;;;;;;5092467;28;20028;-67
2022/08/19 10:33:57;;;;;;;1.88;1.00;;;31.70;91.60;;;;;;5092404;28;20032;-67
2022/08/19 10:36:36;;;;;;;3.40;1.30;;;31.90;91.30;;;;;;5092245;28;20020;-67
2022/08/19 10:39:05;;;;;;;1.25;1.15;;;32.10;91.60;;;;;;5092508;28;20024;-67
2022/08/19 10:41:33;;;;;;;3.75;1.40;;;32.20;91.20;;;;;;5091978;28;20032;-67
2022/08/19 10:44:06;;;;;;;5.22;1.50;;;32.30;92.00;;;;;;5091741;28;20055;-67
2022/08/19 10:46:34;;;;;;;1.90;1.30;;;32.00;91.00;;;;;;5092255;28;20476;-70
2022/08/19 10:49:02;;;;;;;4.03;1.30;;;32.10;91.10;;;;;;5092499;28;20062;-67
2022/08/19 10:54:12;;;;;;;2.10;1.10;;;31.90;90.90;;;;;;5092208;28;20404;-68
2022/08/19 10:56:53;;;;;;;2.95;1.20;;;31.80;91.60;;;;;;5091503;28;20032;-69
2022/08/19 10:59:27;;;;;;;4.80;1.23;;;31.70;91.20;;;;;;5092183;28;20534;-68
2022/08/19 11:01:54;;;;;;;2.35;1.20;;;31.80;91.70;;;;;;5092032;28;20065;-67
2022/08/19 11:04:22;;;;;;;7.10;1.55;;;31.50;91.80;;;;;;5091907;28;20088;-67
2022/08/19 11:06:49;;;;;;;3.58;1.10;;;31.50;91.50;;;;;;5087043;28;20031;-67
2022/08/19 11:09:18;;;;;;;3.38;1.30;;;31.50;91.70;;;;;;5088629;28;20028;-67
2022/08/19 11:11:44;;;;;;;2.92;1.52;;;31.60;92.10;;;;;;5071122;28;20052;-67
2022/08/19 11:14:15;;;;;;;2.65;1.30;;;31.70;91.50;;;;;;5071222;28;20515;-68
2022/08/19 11:16:42;;;;;;;2.28;1.40;;;31.70;91.50;;;;;;5070467;28;20023;-68
2022/08/19 11:19:09;;;;;;;3.97;1.35;;;31.70;91.30;;;;;;5070814;28;20567;-68
2022/08/19 11:21:40;;;;;;;4.85;1.38;;;31.40;91.20;;;;;;5071234;28;20522;-67
2022/08/19 11:24:10;;;;;;;1.88;1.25;;;31.30;92.00;;;;;;5070768;28;20029;-67
2022/08/19 11:26:38;;;;;;;2.08;1.10;;;31.50;92.00;;;;;;5075052;28;20404;-68
2022/08/19 11:29:05;;;;;;;2.15;1.08;;;31.00;91.80;;;;;;5091585;28;20020;-68
2022/08/19 11:31:35;;;;;;;2.55;1.30;;;31.20;92.20;;;;;;5091629;28;20031;-68
2022/08/19 11:34:03;;;;;;;3.03;1.33;;;31.20;92.60;;;;;;5091344;28;20051;-69
2022/08/19 11:36:30;;;;;;;2.72;1.27;;;31.00;92.60;;;;;;5091254;28;20044;-69
2022/08/19 11:38:56;;;;;;;3.55;1.25;;;31.00;91.90;;;;;;5092030;28;20024;-68
2022/08/19 11:41:23;;;;;;;3.60;1.30;;;31.00;92.90;;;;;;5091189;28;20032;-69
2022/08/19 11:43:50;;;;;;;1.70;1.10;;;30.80;92.40;;;;;;5091569;28;20036;-69
2022/08/19 11:46:16;;;;;;;1.90;1.27;;;30.90;92.80;;;;;;5091688;28;20515;-69
2022/08/19 11:48:43;;;;;;;2.10;1.27;;;30.90;93.00;;;;;;5091681;28;20017;-69
2022/08/19 11:51:11;;;;;;;2.00;1.17;;;30.90;92.80;;;;;;5092241;28;20031;-69
2022/08/19 11:53:38;;;;;;;1.90;1.10;;;30.60;92.90;;;;;;5091490;28;20082;-69
2022/08/19 11:56:06;;;;;;;2.20;1.20;;;30.70;92.70;;;;;;5091576;28;20024;-69
2022/08/19 11:58:32;;;;;;;3.17;1.20;;;30.70;92.50;;;;;;5085169;28;20021;-68
2022/08/19 12:00:58;;;;;;;3.10;1.45;;;30.70;92.90;;;;;;5074207;28;20029;-68
2022/08/19 12:03:24;;;;;;;2.97;1.20;;;30.80;92.40;;;;;;5090715;28;20024;-68
2022/08/19 12:05:52;;;;;;;2.88;1.25;;;30.90;92.30;;;;;;5091311;28;20544;-69
2022/08/19 12:08:19;;;;;;;1.77;1.05;;;30.70;93.40;;;;;;5091334;28;20054;-68
2022/08/19 12:10:45;;;;;;;1.70;1.10;;;30.40;93.10;;;;;;5091102;28;20021;-68
2022/08/19 12:13:13;;;;;;;1.50;1.00;;;30.50;93.30;;;;;;5091304;28;20040;-68
2022/08/19 12:15:40;;;;;;;3.10;1.10;;;30.50;93.10;;;;;;5091281;28;20036;-68
2022/08/19 12:18:07;;;;;;;1.65;1.10;;;30.40;93.60;;;;;;5091424;28;20081;-69
2022/08/19 12:20:38;;;;;;;6.30;1.30;;;30.40;93.80;;;;;;5091286;28;20024;-69
2022/08/19 12:23:04;;;;;;;5.03;1.30;;;30.20;94.00;;;;;;5094011;28;20526;-68
2022/08/19 12:25:31;;;;;;;2.72;1.17;;;29.90;94.80;;;;;;5095028;28;20016;-69
2022/08/19 12:27:57;;;;;;;3.05;1.20;;;29.90;95.40;;;;;;5094831;28;20054;-69
2022/08/19 12:30:24;;;;;;;4.30;1.35;;;29.80;95.60;;;;;;5094733;28;20043;-69
2022/08/19 12:32:51;;;;;;;4.20;1.50;;;29.50;95.60;;;;;;5094702;28;20050;-69
2022/08/19 12:35:19;;;;;;;2.00;1.15;;;29.60;96.00;;;;;;5094744;28;20039;-69
2022/08/19 12:37:46;;;;;;;3.60;1.20;;;29.60;96.10;;;;;;5094566;28;20100;-69
2022/08/19 12:40:13;;;;;;;4.28;1.42;;;29.50;96.10;;;;;;5094833;28;20393;-69
2022/08/19 12:42:43;;;;;;;2.42;1.13;;;29.20;96.20;;;;;;5094353;28;20031;-69
2022/08/19 12:45:13;;;;;;;3.33;1.30;;;29.30;96.40;;;;;;5094774;28;20052;-69
2022/08/19 12:47:39;;;;;;;3.80;1.40;;;29.20;96.70;;;;;;5094548;28;20032;-69
2022/08/19 12:50:08;;;;;;;2.67;1.10;;;29.10;96.90;;;;;;5094334;28;20052;-69
2022/08/19 12:52:36;;;;;;;2.65;1.10;;;29.20;97.10;;;;;;5094178;28;20024;-69
2022/08/19 12:55:04;;;;;;;2.65;1.10;;;29.10;96.90;;;;;;5093946;28;20028;-69
2022/08/19 12:57:32;;;;;;;3.45;1.20;;;29.00;97.00;;;;;;5094853;28;20070;-69
2022/08/19 13:00:00;;;;;;;3.15;1.27;;;28.90;97.50;;;;;;5094495;28;20119;-68
2022/08/19 13:02:26;;;;;;;2.15;1.23;;;29.10;97.20;;;;;;5094500;28;20059;-69
2022/08/19 13:04:51;;;;;;;1.88;1.17;;;29.00;96.90;;;;;;5094340;28;20021;-68
2022/08/19 13:07:17;;;;;;;3.58;1.40;;;28.90;97.40;;;;;;5093862;28;20035;-69